sensor_id;sensor_type;location;lat;lon;timestamp;P1;P2;P0
72031;PMS5003;49185;42.320;23.198;2023-04-25T00:00:00;3.00;3.00;0.00
72031;PMS5003;49185;42.320;23.198;2023-04-25T00:02:25;3.00;3.00;0.00
72031;PMS5003;49185;42.320;23.198;2023-04-25T00:04:51;4.33;4.00;0.00
72031;PMS5003;49185;42.320;23.198;2023-04-25T00:07:16;3.00;2.00;0.00
72031;PMS5003;49185;42.320;23.198;2023-04-25T00:09:42;4.00;4.00;0.00
72031;PMS5003;49185;42.320;23.198;2023-04-25T00:12:07;3.33;3.33;0.00
72031;PMS5003;49185;42.320;23.198;2023-04-25T00:14:33;6.75;6.25;1.00
72031;PMS5003;49185;42.320;23.198;2023-04-25T00:16:58;7.00;5.67;1.00
72031;PMS5003;49185;42.320;23.198;2023-04-25T00:19:24;6.00;6.00;1.00
72031;PMS5003;49185;42.320;23.198;2023-04-25T00:21:49;6.00;5.00;1.67
72031;PMS5003;49185;42.320;23.198;2023-04-25T00:24:14;4.00;4.00;1.00
72031;PMS5003;49185;42.320;23.198;2023-04-25T00:26:40;5.00;5.00;0.00
72031;PMS5003;49185;42.320;23.198;2023-04-25T00:29:05;6.00;6.00;1.00
72031;PMS5003;49185;42.320;23.198;2023-04-25T00:31:31;3.33;3.00;0.00
72031;PMS5003;49185;42.320;23.198;2023-04-25T00:33:56;5.00;4.67;0.00
72031;PMS5003;49185;42.320;23.198;2023-04-25T00:36:21;3.00;3.00;0.00
72031;PMS5003;49185;42.320;23.198;2023-04-25T00:38:47;4.33;3.00;0.00
72031;PMS5003;49185;42.320;23.198;2023-04-25T00:41:13;5.00;3.00;0.00
72031;PMS5003;49185;42.320;23.198;2023-04-25T00:43:38;5.00;4.33;0.00
72031;PMS5003;49185;42.320;23.198;2023-04-25T00:46:05;5.25;4.25;0.00
72031;PMS5003;49185;42.320;23.198;2023-04-25T00:48:30;4.33;3.67;0.00
72031;PMS5003;49185;42.320;23.198;2023-04-25T00:50:58;2.00;2.00;0.00
72031;PMS5003;49185;42.320;23.198;2023-04-25T00:53:26;5.00;5.00;0.00
72031;PMS5003;49185;42.320;23.198;2023-04-25T00:55:53;4.75;4.00;0.00
72031;PMS5003;49185;42.320;23.198;2023-04-25T00:58:19;4.75;4.75;0.00
72031;PMS5003;49185;42.320;23.198;2023-04-25T01:00:46;5.50;5.25;0.00
72031;PMS5003;49185;42.320;23.198;2023-04-25T01:03:13;6.00;5.00;0.00
72031;PMS5003;49185;42.320;23.198;2023-04-25T01:05:43;5.25;5.25;0.00
72031;PMS5003;49185;42.320;23.198;2023-04-25T01:08:09;6.00;6.00;0.00
72031;PMS5003;49185;42.320;23.198;2023-04-25T01:10:35;6.75;6.00;0.00
72031;PMS5003;49185;42.320;23.198;2023-04-25T01:13:01;8.00;8.00;1.00
72031;PMS5003;49185;42.320;23.198;2023-04-25T01:15:26;6.00;6.00;1.00
72031;PMS5003;49185;42.320;23.198;2023-04-25T01:17:52;5.33;4.67;0.00
72031;PMS5003;49185;42.320;23.198;2023-04-25T01:20:19;5.75;4.00;1.00
72031;PMS5003;49185;42.320;23.198;2023-04-25T01:22:46;6.00;5.00;1.00
72031;PMS5003;49185;42.320;23.198;2023-04-25T01:25:12;5.00;5.00;1.00
72031;PMS5003;49185;42.320;23.198;2023-04-25T01:27:37;5.00;5.00;1.00
72031;PMS5003;49185;42.320;23.198;2023-04-25T01:30:03;3.33;3.33;0.00
72031;PMS5003;49185;42.320;23.198;2023-04-25T01:32:30;5.75;5.00;0.00
72031;PMS5003;49185;42.320;23.198;2023-04-25T01:34:56;7.00;5.25;0.00
72031;PMS5003;49185;42.320;23.198;2023-04-25T01:37:21;7.00;4.00;0.00
72031;PMS5003;49185;42.320;23.198;2023-04-25T01:39:47;5.00;5.00;0.00
72031;PMS5003;49185;42.320;23.198;2023-04-25T01:42:13;5.00;5.00;1.00
72031;PMS5003;49185;42.320;23.198;2023-04-25T01:44:38;5.00;5.00;1.00
72031;PMS5003;49185;42.320;23.198;2023-04-25T01:47:04;4.00;4.00;1.67
72031;PMS5003;49185;42.320;23.198;2023-04-25T01:49:29;7.00;7.00;2.00
72031;PMS5003;49185;42.320;23.198;2023-04-25T01:51:54;8.00;8.00;1.00
72031;PMS5003;49185;42.320;23.198;2023-04-25T01:54:20;8.00;7.00;1.33
72031;PMS5003;49185;42.320;23.198;2023-04-25T01:56:50;8.00;8.00;2.00
72031;PMS5003;49185;42.320;23.198;2023-04-25T01:59:15;5.50;5.50;2.00
72031;PMS5003;49185;42.320;23.198;2023-04-25T02:01:41;7.00;7.00;3.00
72031;PMS5003;49185;42.320;23.198;2023-04-25T02:04:06;6.00;6.00;2.00
72031;PMS5003;49185;42.320;23.198;2023-04-25T02:06:32;7.00;6.00;1.00
72031;PMS5003;49185;42.320;23.198;2023-04-25T02:08:57;7.00;6.00;3.00
72031;PMS5003;49185;42.320;23.198;2023-04-25T02:11:23;8.00;6.00;2.00
72031;PMS5003;49185;42.320;23.198;2023-04-25T02:13:48;5.00;5.00;2.00
72031;PMS5003;49185;42.320;23.198;2023-04-25T02:16:13;7.00;5.67;2.00
72031;PMS5003;49185;42.320;23.198;2023-04-25T02:18:39;6.00;5.00;1.00
72031;PMS5003;49185;42.320;23.198;2023-04-25T02:21:04;7.00;7.00;3.00
72031;PMS5003;49185;42.320;23.198;2023-04-25T02:23:30;6.00;6.00;2.00
72031;PMS5003;49185;42.320;23.198;2023-04-25T02:25:56;6.00;6.00;2.00
72031;PMS5003;49185;42.320;23.198;2023-04-25T02:28:22;4.00;4.00;2.00
72031;PMS5003;49185;42.320;23.198;2023-04-25T02:30:48;7.00;6.75;2.00
72031;PMS5003;49185;42.320;23.198;2023-04-25T02:33:14;7.33;7.00;3.00
72031;PMS5003;49185;42.320;23.198;2023-04-25T02:35:39;7.00;6.00;2.00
72031;PMS5003;49185;42.320;23.198;2023-04-25T02:38:05;7.00;7.00;2.00
72031;PMS5003;49185;42.320;23.198;2023-04-25T02:40:30;8.33;8.00;2.00
72031;PMS5003;49185;42.320;23.198;2023-04-25T02:42:55;9.67;8.00;3.67
72031;PMS5003;49185;42.320;23.198;2023-04-25T02:45:21;9.33;6.67;2.00
72031;PMS5003;49185;42.320;23.198;2023-04-25T02:47:46;9.00;9.00;2.00
72031;PMS5003;49185;42.320;23.198;2023-04-25T02:50:12;7.00;7.00;3.00
72031;PMS5003;49185;42.320;23.198;2023-04-25T02:52:37;8.00;8.00;2.00
72031;PMS5003;49185;42.320;23.198;2023-04-25T02:55:02;9.00;8.00;2.00
72031;PMS5003;49185;42.320;23.198;2023-04-25T02:57:28;9.33;9.00;4.00
72031;PMS5003;49185;42.320;23.198;2023-04-25T02:59:53;10.00;8.33;3.00
72031;PMS5003;49185;42.320;23.198;2023-04-25T03:02:19;7.00;6.00;2.00
72031;PMS5003;49185;42.320;23.198;2023-04-25T03:04:44;6.00;5.00;1.00
72031;PMS5003;49185;42.320;23.198;2023-04-25T03:07:10;6.00;6.00;2.33
72031;PMS5003;49185;42.320;23.198;2023-04-25T03:09:35;10.00;9.00;2.75
72031;PMS5003;49185;42.320;23.198;2023-04-25T03:12:01;7.00;6.00;2.00
72031;PMS5003;49185;42.320;23.198;2023-04-25T03:14:26;7.67;7.00;2.00
72031;PMS5003;49185;42.320;23.198;2023-04-25T03:16:52;8.67;7.00;2.00
72031;PMS5003;49185;42.320;23.198;2023-04-25T03:19:17;6.00;6.00;1.00
72031;PMS5003;49185;42.320;23.198;2023-04-25T03:21:43;7.00;7.00;3.00
72031;PMS5003;49185;42.320;23.198;2023-04-25T03:24:09;10.50;10.50;3.25
72031;PMS5003;49185;42.320;23.198;2023-04-25T03:26:34;11.33;11.00;5.00
72031;PMS5003;49185;42.320;23.198;2023-04-25T03:28:59;13.33;13.33;7.00
72031;PMS5003;49185;42.320;23.198;2023-04-25T03:31:25;19.33;17.00;7.00
72031;PMS5003;49185;42.320;23.198;2023-04-25T03:33:50;18.00;17.00;6.33
72031;PMS5003;49185;42.320;23.198;2023-04-25T03:36:16;17.33;15.00;5.00
72031;PMS5003;49185;42.320;23.198;2023-04-25T03:38:41;16.00;13.00;6.00
72031;PMS5003;49185;42.320;23.198;2023-04-25T03:41:07;15.00;12.67;5.00
72031;PMS5003;49185;42.320;23.198;2023-04-25T03:43:32;12.00;10.00;4.00
72031;PMS5003;49185;42.320;23.198;2023-04-25T03:45:57;14.00;8.33;3.00
72031;PMS5003;49185;42.320;23.198;2023-04-25T03:48:23;7.67;6.67;2.00
72031;PMS5003;49185;42.320;23.198;2023-04-25T03:50:48;9.33;8.00;2.67
72031;PMS5003;49185;42.320;23.198;2023-04-25T03:53:14;9.00;9.00;4.00
72031;PMS5003;49185;42.320;23.198;2023-04-25T03:55:39;9.00;8.00;3.00
72031;PMS5003;49185;42.320;23.198;2023-04-25T03:58:05;8.00;7.00;3.00
72031;PMS5003;49185;42.320;23.198;2023-04-25T04:00:30;8.25;7.25;2.50
72031;PMS5003;49185;42.320;23.198;2023-04-25T04:02:56;9.00;8.33;3.00
72031;PMS5003;49185;42.320;23.198;2023-04-25T04:05:22;9.25;9.25;4.00
72031;PMS5003;49185;42.320;23.198;2023-04-25T04:07:47;9.00;8.00;3.00
72031;PMS5003;49185;42.320;23.198;2023-04-25T04:10:12;6.00;6.00;3.00
72031;PMS5003;49185;42.320;23.198;2023-04-25T04:12:38;8.00;6.33;3.00
72031;PMS5003;49185;42.320;23.198;2023-04-25T04:15:04;8.00;7.00;3.00
72031;PMS5003;49185;42.320;23.198;2023-04-25T04:17:30;9.00;8.75;3.25
72031;PMS5003;49185;42.320;23.198;2023-04-25T04:19:56;11.33;10.33;5.00
72031;PMS5003;49185;42.320;23.198;2023-04-25T04:22:22;19.33;15.33;8.00
72031;PMS5003;49185;42.320;23.198;2023-04-25T04:24:48;22.00;20.00;9.00
72031;PMS5003;49185;42.320;23.198;2023-04-25T04:27:13;20.33;19.33;9.00
72031;PMS5003;49185;42.320;23.198;2023-04-25T04:29:39;21.00;20.33;9.00
72031;PMS5003;49185;42.320;23.198;2023-04-25T04:32:04;18.00;18.00;8.00
72031;PMS5003;49185;42.320;23.198;2023-04-25T04:34:30;16.00;16.00;8.00
72031;PMS5003;49185;42.320;23.198;2023-04-25T04:36:55;16.00;15.00;6.67
72031;PMS5003;49185;42.320;23.198;2023-04-25T04:39:21;11.33;11.00;3.00
72031;PMS5003;49185;42.320;23.198;2023-04-25T04:41:46;10.00;8.00;4.00
72031;PMS5003;49185;42.320;23.198;2023-04-25T04:44:11;9.33;9.00;3.67
72031;PMS5003;49185;42.320;23.198;2023-04-25T04:46:37;11.67;8.67;3.00
72031;PMS5003;49185;42.320;23.198;2023-04-25T04:49:04;11.00;7.00;2.00
72031;PMS5003;49185;42.320;23.198;2023-04-25T04:51:30;7.25;5.50;3.00
72031;PMS5003;49185;42.320;23.198;2023-04-25T04:53:55;4.00;4.00;2.00
72031;PMS5003;49185;42.320;23.198;2023-04-25T04:56:20;5.00;5.00;2.00
72031;PMS5003;49185;42.320;23.198;2023-04-25T04:58:46;7.00;7.00;1.00
72031;PMS5003;49185;42.320;23.198;2023-04-25T05:01:11;6.00;5.00;1.00
72031;PMS5003;49185;42.320;23.198;2023-04-25T05:03:37;5.00;5.00;2.33
72031;PMS5003;49185;42.320;23.198;2023-04-25T05:06:02;7.00;6.00;2.00
72031;PMS5003;49185;42.320;23.198;2023-04-25T05:08:28;7.33;5.00;1.00
72031;PMS5003;49185;42.320;23.198;2023-04-25T05:10:53;5.00;5.00;0.00
72031;PMS5003;49185;42.320;23.198;2023-04-25T05:13:18;6.00;6.00;1.67
72031;PMS5003;49185;42.320;23.198;2023-04-25T05:15:44;7.00;6.00;2.00
72031;PMS5003;49185;42.320;23.198;2023-04-25T05:18:09;7.00;7.00;2.33
72031;PMS5003;49185;42.320;23.198;2023-04-25T05:20:35;5.67;5.67;1.00
72031;PMS5003;49185;42.320;23.198;2023-04-25T05:23:00;5.00;5.00;2.00
72031;PMS5003;49185;42.320;23.198;2023-04-25T05:25:25;6.00;6.00;2.00
72031;PMS5003;49185;42.320;23.198;2023-04-25T05:27:51;7.00;7.00;2.00
72031;PMS5003;49185;42.320;23.198;2023-04-25T05:30:16;8.00;6.33;1.67
72031;PMS5003;49185;42.320;23.198;2023-04-25T05:32:42;10.00;9.00;3.00
72031;PMS5003;49185;42.320;23.198;2023-04-25T05:35:07;8.00;8.00;3.00
72031;PMS5003;49185;42.320;23.198;2023-04-25T05:37:33;7.50;7.00;3.75
72031;PMS5003;49185;42.320;23.198;2023-04-25T05:39:58;7.00;6.67;3.00
72031;PMS5003;49185;42.320;23.198;2023-04-25T05:42:23;8.00;7.00;4.00
72031;PMS5003;49185;42.320;23.198;2023-04-25T05:44:49;10.00;8.00;4.00
72031;PMS5003;49185;42.320;23.198;2023-04-25T05:47:14;8.00;7.00;4.00
72031;PMS5003;49185;42.320;23.198;2023-04-25T05:49:40;8.33;8.00;3.00
72031;PMS5003;49185;42.320;23.198;2023-04-25T05:52:05;9.00;8.33;3.33
72031;PMS5003;49185;42.320;23.198;2023-04-25T05:54:30;11.00;10.00;5.00
72031;PMS5003;49185;42.320;23.198;2023-04-25T05:56:56;15.00;15.00;9.00
72031;PMS5003;49185;42.320;23.198;2023-04-25T05:59:22;15.00;15.00;6.25
72031;PMS5003;49185;42.320;23.198;2023-04-25T06:01:47;17.67;17.67;9.00
72031;PMS5003;49185;42.320;23.198;2023-04-25T06:04:12;19.33;19.00;10.00
72031;PMS5003;49185;42.320;23.198;2023-04-25T06:06:38;18.33;17.00;7.00
72031;PMS5003;49185;42.320;23.198;2023-04-25T06:09:03;19.00;17.00;8.67
72031;PMS5003;49185;42.320;23.198;2023-04-25T06:11:29;17.00;16.00;6.00
72031;PMS5003;49185;42.320;23.198;2023-04-25T06:13:54;12.33;12.33;3.00
72031;PMS5003;49185;42.320;23.198;2023-04-25T06:16:19;9.00;8.00;3.00
72031;PMS5003;49185;42.320;23.198;2023-04-25T06:18:45;13.67;11.67;6.00
72031;PMS5003;49185;42.320;23.198;2023-04-25T06:21:10;15.00;10.33;4.00
72031;PMS5003;49185;42.320;23.198;2023-04-25T06:23:36;10.67;8.00;2.00
72031;PMS5003;49185;42.320;23.198;2023-04-25T06:26:01;8.67;8.67;3.00
72031;PMS5003;49185;42.320;23.198;2023-04-25T06:28:27;11.00;10.00;4.00
72031;PMS5003;49185;42.320;23.198;2023-04-25T06:30:52;6.00;5.00;2.00
72031;PMS5003;49185;42.320;23.198;2023-04-25T06:33:17;5.00;5.00;1.00
72031;PMS5003;49185;42.320;23.198;2023-04-25T06:35:43;7.00;6.00;1.00
72031;PMS5003;49185;42.320;23.198;2023-04-25T06:38:08;7.00;7.00;0.00
72031;PMS5003;49185;42.320;23.198;2023-04-25T06:40:34;5.33;5.00;0.00
72031;PMS5003;49185;42.320;23.198;2023-04-25T06:42:59;5.00;4.00;1.00
72031;PMS5003;49185;42.320;23.198;2023-04-25T06:45:24;6.00;5.00;0.00
72031;PMS5003;49185;42.320;23.198;2023-04-25T06:47:50;5.00;4.67;1.00
72031;PMS5003;49185;42.320;23.198;2023-04-25T06:50:15;7.00;7.00;4.00
72031;PMS5003;49185;42.320;23.198;2023-04-25T06:52:41;4.00;3.00;3.00
72031;PMS5003;49185;42.320;23.198;2023-04-25T06:55:06;2.67;2.00;1.00
72031;PMS5003;49185;42.320;23.198;2023-04-25T06:57:32;5.67;5.00;2.00
72031;PMS5003;49185;42.320;23.198;2023-04-25T06:59:57;7.33;7.00;3.00
72031;PMS5003;49185;42.320;23.198;2023-04-25T07:02:22;3.67;3.00;1.67
72031;PMS5003;49185;42.320;23.198;2023-04-25T07:04:48;3.00;2.00;0.00
72031;PMS5003;49185;42.320;23.198;2023-04-25T07:07:13;4.33;3.67;0.00
72031;PMS5003;49185;42.320;23.198;2023-04-25T07:09:39;4.00;3.75;0.00
72031;PMS5003;49185;42.320;23.198;2023-04-25T07:12:04;4.00;3.00;0.00
72031;PMS5003;49185;42.320;23.198;2023-04-25T07:14:30;2.00;1.00;0.00
72031;PMS5003;49185;42.320;23.198;2023-04-25T07:16:55;1.67;1.67;0.00
72031;PMS5003;49185;42.320;23.198;2023-04-25T07:19:21;1.00;1.00;0.00
72031;PMS5003;49185;42.320;23.198;2023-04-25T07:21:46;1.00;1.00;0.00
72031;PMS5003;49185;42.320;23.198;2023-04-25T07:24:12;1.00;1.00;0.00
72031;PMS5003;49185;42.320;23.198;2023-04-25T07:26:37;0.00;0.00;0.00
72031;PMS5003;49185;42.320;23.198;2023-04-25T07:29:02;0.00;0.00;0.00
72031;PMS5003;49185;42.320;23.198;2023-04-25T07:31:28;0.67;0.00;0.00
72031;PMS5003;49185;42.320;23.198;2023-04-25T07:33:53;2.00;1.00;0.00
72031;PMS5003;49185;42.320;23.198;2023-04-25T07:36:19;0.00;0.00;0.00
72031;PMS5003;49185;42.320;23.198;2023-04-25T07:38:44;1.00;1.00;0.00
72031;PMS5003;49185;42.320;23.198;2023-04-25T07:41:09;0.00;0.00;0.00
72031;PMS5003;49185;42.320;23.198;2023-04-25T07:43:35;0.00;0.00;0.00
72031;PMS5003;49185;42.320;23.198;2023-04-25T07:46:00;0.00;0.00;0.00
72031;PMS5003;49185;42.320;23.198;2023-04-25T07:48:26;0.00;0.00;0.00
72031;PMS5003;49185;42.320;23.198;2023-04-25T07:50:51;0.00;0.00;0.00
72031;PMS5003;49185;42.320;23.198;2023-04-25T07:53:16;1.00;0.00;0.00
72031;PMS5003;49185;42.320;23.198;2023-04-25T07:55:42;1.00;0.00;0.00
72031;PMS5003;49185;42.320;23.198;2023-04-25T07:58:07;0.00;0.00;0.00
72031;PMS5003;49185;42.320;23.198;2023-04-25T08:00:33;0.00;0.00;0.00
72031;PMS5003;49185;42.320;23.198;2023-04-25T08:02:58;0.00;0.00;0.00
72031;PMS5003;49185;42.320;23.198;2023-04-25T08:05:24;0.00;0.00;0.00
72031;PMS5003;49185;42.320;23.198;2023-04-25T08:07:49;0.00;0.00;0.00
72031;PMS5003;49185;42.320;23.198;2023-04-25T08:10:15;0.00;0.00;0.00
72031;PMS5003;49185;42.320;23.198;2023-04-25T08:12:40;0.00;0.00;0.00
72031;PMS5003;49185;42.320;23.198;2023-04-25T08:15:06;0.67;0.67;0.00
72031;PMS5003;49185;42.320;23.198;2023-04-25T08:17:32;0.00;0.00;0.00
72031;PMS5003;49185;42.320;23.198;2023-04-25T08:19:57;0.00;0.00;0.00
72031;PMS5003;49185;42.320;23.198;2023-04-25T08:22:22;0.00;0.00;0.00
72031;PMS5003;49185;42.320;23.198;2023-04-25T08:24:48;0.00;0.00;0.00
72031;PMS5003;49185;42.320;23.198;2023-04-25T08:27:13;0.00;0.00;0.00
72031;PMS5003;49185;42.320;23.198;2023-04-25T08:29:39;0.00;0.00;0.00
72031;PMS5003;49185;42.320;23.198;2023-04-25T08:32:04;0.00;0.00;0.00
72031;PMS5003;49185;42.320;23.198;2023-04-25T08:34:29;0.00;0.00;0.00
72031;PMS5003;49185;42.320;23.198;2023-04-25T08:36:55;0.00;0.00;0.00
72031;PMS5003;49185;42.320;23.198;2023-04-25T08:39:21;0.00;0.00;0.00
72031;PMS5003;49185;42.320;23.198;2023-04-25T08:41:46;0.00;0.00;0.00
72031;PMS5003;49185;42.320;23.198;2023-04-25T08:44:12;0.00;0.00;0.00
72031;PMS5003;49185;42.320;23.198;2023-04-25T08:46:38;0.00;0.00;0.00
72031;PMS5003;49185;42.320;23.198;2023-04-25T08:49:04;0.00;0.00;0.00
72031;PMS5003;49185;42.320;23.198;2023-04-25T08:51:33;0.33;0.33;0.00
72031;PMS5003;49185;42.320;23.198;2023-04-25T08:54:09;0.00;0.00;0.00
72031;PMS5003;49185;42.320;23.198;2023-04-25T08:56:36;0.75;0.00;0.00
72031;PMS5003;49185;42.320;23.198;2023-04-25T08:59:05;0.75;0.75;0.00
72031;PMS5003;49185;42.320;23.198;2023-04-25T09:01:31;0.00;0.00;0.00
72031;PMS5003;49185;42.320;23.198;2023-04-25T09:03:57;0.00;0.00;0.00
72031;PMS5003;49185;42.320;23.198;2023-04-25T09:06:22;0.00;0.00;0.00
72031;PMS5003;49185;42.320;23.198;2023-04-25T09:08:49;0.00;0.00;0.00
72031;PMS5003;49185;42.320;23.198;2023-04-25T09:11:15;3.75;0.75;0.00
72031;PMS5003;49185;42.320;23.198;2023-04-25T09:13:41;1.00;0.00;0.00
72031;PMS5003;49185;42.320;23.198;2023-04-25T09:16:06;1.00;0.00;0.00
72031;PMS5003;49185;42.320;23.198;2023-04-25T09:18:32;0.00;0.00;0.00
72031;PMS5003;49185;42.320;23.198;2023-04-25T09:21:06;0.00;0.00;0.00
72031;PMS5003;49185;42.320;23.198;2023-04-25T09:24:06;0.00;0.00;0.00
72031;PMS5003;49185;42.320;23.198;2023-04-25T09:26:24;0.00;0.00;0.00
72031;PMS5003;49185;42.320;23.198;2023-04-25T09:28:57;0.00;0.00;0.00
72031;PMS5003;49185;42.320;23.198;2023-04-25T09:31:31;0.00;0.00;0.00
72031;PMS5003;49185;42.320;23.198;2023-04-25T09:34:01;0.00;0.00;0.00
72031;PMS5003;49185;42.320;23.198;2023-04-25T09:36:27;0.00;0.00;0.00
72031;PMS5003;49185;42.320;23.198;2023-04-25T09:38:53;0.00;0.00;0.00
72031;PMS5003;49185;42.320;23.198;2023-04-25T09:41:23;0.00;0.00;0.00
72031;PMS5003;49185;42.320;23.198;2023-04-25T09:43:49;0.00;0.00;0.00
72031;PMS5003;49185;42.320;23.198;2023-04-25T09:46:15;0.00;0.00;0.00
72031;PMS5003;49185;42.320;23.198;2023-04-25T09:48:40;0.00;0.00;0.00
72031;PMS5003;49185;42.320;23.198;2023-04-25T09:51:14;0.00;0.00;0.00
72031;PMS5003;49185;42.320;23.198;2023-04-25T09:53:40;0.00;0.00;0.00
72031;PMS5003;49185;42.320;23.198;2023-04-25T09:56:10;0.00;0.00;0.00
72031;PMS5003;49185;42.320;23.198;2023-04-25T09:58:37;0.00;0.00;0.00
72031;PMS5003;49185;42.320;23.198;2023-04-25T10:01:08;0.00;0.00;0.00
72031;PMS5003;49185;42.320;23.198;2023-04-25T10:03:36;0.00;0.00;0.00
72031;PMS5003;49185;42.320;23.198;2023-04-25T10:06:04;0.00;0.00;0.00
72031;PMS5003;49185;42.320;23.198;2023-04-25T10:08:35;0.00;0.00;0.00
72031;PMS5003;49185;42.320;23.198;2023-04-25T10:11:03;0.00;0.00;0.00
72031;PMS5003;49185;42.320;23.198;2023-04-25T10:13:29;0.00;0.00;0.00
72031;PMS5003;49185;42.320;23.198;2023-04-25T10:15:57;0.00;0.00;0.00
72031;PMS5003;49185;42.320;23.198;2023-04-25T10:18:24;0.00;0.00;0.00
72031;PMS5003;49185;42.320;23.198;2023-04-25T10:20:50;2.50;2.50;1.75
72031;PMS5003;49185;42.320;23.198;2023-04-25T10:23:16;1.00;1.00;0.00
72031;PMS5003;49185;42.320;23.198;2023-04-25T10:25:42;0.00;0.00;0.00
72031;PMS5003;49185;42.320;23.198;2023-04-25T10:28:08;0.00;0.00;0.00
72031;PMS5003;49185;42.320;23.198;2023-04-25T10:30:34;0.00;0.00;0.00
72031;PMS5003;49185;42.320;23.198;2023-04-25T10:32:59;0.00;0.00;0.00
72031;PMS5003;49185;42.320;23.198;2023-04-25T10:35:26;0.00;0.00;0.00
72031;PMS5003;49185;42.320;23.198;2023-04-25T10:38:08;0.00;0.00;0.00
72031;PMS5003;49185;42.320;23.198;2023-04-25T10:40:35;0.00;0.00;0.00
72031;PMS5003;49185;42.320;23.198;2023-04-25T10:46:22;0.00;0.00;0.00
72031;PMS5003;49185;42.320;23.198;2023-04-25T10:48:49;0.00;0.00;0.00
72031;PMS5003;49185;42.320;23.198;2023-04-25T10:51:20;0.00;0.00;0.00
72031;PMS5003;49185;42.320;23.198;2023-04-25T10:56:20;2.00;1.00;0.00
72031;PMS5003;49185;42.320;23.198;2023-04-25T10:58:46;0.25;0.25;0.00
72031;PMS5003;49185;42.320;23.198;2023-04-25T11:01:19;1.00;1.00;0.00
72031;PMS5003;49185;42.320;23.198;2023-04-25T11:03:46;0.00;0.00;0.00
72031;PMS5003;49185;42.320;23.198;2023-04-25T11:08:57;0.00;0.00;0.00
72031;PMS5003;49185;42.320;23.198;2023-04-25T11:11:25;0.00;0.00;0.00
72031;PMS5003;49185;42.320;23.198;2023-04-25T11:13:50;0.00;0.00;0.00
72031;PMS5003;49185;42.320;23.198;2023-04-25T11:16:16;3.00;2.67;0.00
72031;PMS5003;49185;42.320;23.198;2023-04-25T11:18:42;0.00;0.00;0.00
72031;PMS5003;49185;42.320;23.198;2023-04-25T11:21:09;0.00;0.00;0.00
72031;PMS5003;49185;42.320;23.198;2023-04-25T11:23:35;0.00;0.00;0.00
72031;PMS5003;49185;42.320;23.198;2023-04-25T11:26:00;0.00;0.00;0.00
72031;PMS5003;49185;42.320;23.198;2023-04-25T11:28:26;0.00;0.00;0.00
72031;PMS5003;49185;42.320;23.198;2023-04-25T11:30:52;1.00;0.00;0.00
72031;PMS5003;49185;42.320;23.198;2023-04-25T11:33:17;1.00;0.00;0.00
72031;PMS5003;49185;42.320;23.198;2023-04-25T11:35:43;0.00;0.00;0.00
72031;PMS5003;49185;42.320;23.198;2023-04-25T11:38:08;0.00;0.00;0.00
72031;PMS5003;49185;42.320;23.198;2023-04-25T11:40:37;0.00;0.00;0.00
72031;PMS5003;49185;42.320;23.198;2023-04-25T11:43:02;0.00;0.00;0.00
72031;PMS5003;49185;42.320;23.198;2023-04-25T11:45:28;0.00;0.00;0.00
72031;PMS5003;49185;42.320;23.198;2023-04-25T11:47:53;0.00;0.00;0.00
72031;PMS5003;49185;42.320;23.198;2023-04-25T11:50:19;0.00;0.00;0.00
72031;PMS5003;49185;42.320;23.198;2023-04-25T11:52:45;0.00;0.00;0.00
72031;PMS5003;49185;42.320;23.198;2023-04-25T11:55:16;0.00;0.00;0.00
72031;PMS5003;49185;42.320;23.198;2023-04-25T11:57:44;0.00;0.00;0.00
72031;PMS5003;49185;42.320;23.198;2023-04-25T12:00:12;0.00;0.00;0.00
72031;PMS5003;49185;42.320;23.198;2023-04-25T12:03:12;0.00;0.00;0.00
72031;PMS5003;49185;42.320;23.198;2023-04-25T12:05:34;0.00;0.00;0.00
72031;PMS5003;49185;42.320;23.198;2023-04-25T12:08:17;0.00;0.00;0.00
72031;PMS5003;49185;42.320;23.198;2023-04-25T12:10:43;0.00;0.00;0.00
72031;PMS5003;49185;42.320;23.198;2023-04-25T12:13:44;0.00;0.00;0.00
72031;PMS5003;49185;42.320;23.198;2023-04-25T12:16:02;0.00;0.00;0.00
72031;PMS5003;49185;42.320;23.198;2023-04-25T12:18:28;0.00;0.00;0.00
72031;PMS5003;49185;42.320;23.198;2023-04-25T12:20:53;0.00;0.00;0.00
72031;PMS5003;49185;42.320;23.198;2023-04-25T12:23:28;0.00;0.00;0.00
72031;PMS5003;49185;42.320;23.198;2023-04-25T12:25:54;0.00;0.00;0.00
72031;PMS5003;49185;42.320;23.198;2023-04-25T12:28:20;0.00;0.00;0.00
72031;PMS5003;49185;42.320;23.198;2023-04-25T12:33:25;0.00;0.00;0.00
72031;PMS5003;49185;42.320;23.198;2023-04-25T12:35:52;0.00;0.00;0.00
72031;PMS5003;49185;42.320;23.198;2023-04-25T12:38:21;0.00;0.00;0.00
72031;PMS5003;49185;42.320;23.198;2023-04-25T12:40:50;0.00;0.00;0.00
72031;PMS5003;49185;42.320;23.198;2023-04-25T12:43:16;0.00;0.00;0.00
72031;PMS5003;49185;42.320;23.198;2023-04-25T12:45:41;0.00;0.00;0.00
72031;PMS5003;49185;42.320;23.198;2023-04-25T12:48:06;0.00;0.00;0.00
72031;PMS5003;49185;42.320;23.198;2023-04-25T12:50:32;0.00;0.00;0.00
72031;PMS5003;49185;42.320;23.198;2023-04-25T12:52:57;0.00;0.00;0.00
72031;PMS5003;49185;42.320;23.198;2023-04-25T12:55:23;0.00;0.00;0.00
72031;PMS5003;49185;42.320;23.198;2023-04-25T12:57:48;0.00;0.00;0.00
72031;PMS5003;49185;42.320;23.198;2023-04-25T13:00:14;0.00;0.00;0.00
72031;PMS5003;49185;42.320;23.198;2023-04-25T13:02:39;0.00;0.00;0.00
72031;PMS5003;49185;42.320;23.198;2023-04-25T13:05:05;0.00;0.00;0.00
72031;PMS5003;49185;42.320;23.198;2023-04-25T13:07:30;0.00;0.00;0.00
72031;PMS5003;49185;42.320;23.198;2023-04-25T13:09:56;0.00;0.00;0.00
72031;PMS5003;49185;42.320;23.198;2023-04-25T13:12:21;0.00;0.00;0.00
72031;PMS5003;49185;42.320;23.198;2023-04-25T13:14:46;0.00;0.00;0.00
72031;PMS5003;49185;42.320;23.198;2023-04-25T13:17:12;0.00;0.00;0.00
72031;PMS5003;49185;42.320;23.198;2023-04-25T13:19:37;0.00;0.00;0.00
72031;PMS5003;49185;42.320;23.198;2023-04-25T13:22:03;0.00;0.00;0.00
72031;PMS5003;49185;42.320;23.198;2023-04-25T13:24:28;0.00;0.00;0.00
72031;PMS5003;49185;42.320;23.198;2023-04-25T13:26:53;0.00;0.00;0.00
72031;PMS5003;49185;42.320;23.198;2023-04-25T13:29:19;0.00;0.00;0.00
72031;PMS5003;49185;42.320;23.198;2023-04-25T13:31:44;0.00;0.00;0.00
72031;PMS5003;49185;42.320;23.198;2023-04-25T13:34:10;0.00;0.00;0.00
72031;PMS5003;49185;42.320;23.198;2023-04-25T13:36:35;0.00;0.00;0.00
72031;PMS5003;49185;42.320;23.198;2023-04-25T13:39:01;0.00;0.00;0.00
72031;PMS5003;49185;42.320;23.198;2023-04-25T13:41:26;0.00;0.00;0.00
72031;PMS5003;49185;42.320;23.198;2023-04-25T13:43:51;0.00;0.00;0.00
72031;PMS5003;49185;42.320;23.198;2023-04-25T13:46:17;0.00;0.00;0.00
72031;PMS5003;49185;42.320;23.198;2023-04-25T13:48:42;0.33;0.00;0.00
72031;PMS5003;49185;42.320;23.198;2023-04-25T13:51:08;0.00;0.00;0.00
72031;PMS5003;49185;42.320;23.198;2023-04-25T13:53:33;0.00;0.00;0.00
72031;PMS5003;49185;42.320;23.198;2023-04-25T13:55:58;0.00;0.00;0.00
72031;PMS5003;49185;42.320;23.198;2023-04-25T13:58:24;0.00;0.00;0.00
72031;PMS5003;49185;42.320;23.198;2023-04-25T14:00:50;0.00;0.00;0.00
72031;PMS5003;49185;42.320;23.198;2023-04-25T14:03:15;0.00;0.00;0.00
72031;PMS5003;49185;42.320;23.198;2023-04-25T14:05:41;0.00;0.00;0.00
72031;PMS5003;49185;42.320;23.198;2023-04-25T14:08:07;0.00;0.00;0.00
72031;PMS5003;49185;42.320;23.198;2023-04-25T14:10:34;0.00;0.00;0.00